Airfield :
LOGIN :

Register | Disclaimer

   EN    FR    IT 

 










Legend :    VFR   Marginal VFR   IFR   Intensive IFR   Very Intensive IFR
Visi :
Ceiling :
>= 8 km
>= 3000ft
5 to 8 km
1000 to 3000 ft
1500m to 5 km
500 to 1000 ft
800 to 1500m
200 to 500 ft
< 800m
< 200 ft
Symbols :   Thunderstorms  Fog  Heavy snow  Heavy precipitations  Wind > 20 kt
SIGMETs :     Misc.  Thunderstorms  Icing  Turbulence  Mountain Waves  Volcanic Ashes






- Airport Elevation : 313 ft
- IATA code : LEH


LFOH - Le Havre Octeville

CURRENT METAR :
  • 221100Z AUTO 06016KT 9999 BKN015/// BKN022/// BKN030/// ///TCU 14/12 Q1015 TEMPO 05015G25KT RA BKN012 OVC030

EXPIRED METARs :
  • 221030Z AUTO 06016KT 9999 SCT014/// BKN030/// OVC037/// ///TCU 13/11 Q1015 TEMPO 05015G25KT RA BKN012 OVC030
  • 221000Z AUTO 05018G29KT 9999 OVC013/// ///TCU 13/11 Q1015 TEMPO RA BKN012 OVC030
  • 220930Z AUTO 05018G31KT 9999 BKN011/// OVC029/// ///CB 13/11 Q1014 TEMPO RA BKN012 OVC030
  • 220900Z AUTO 05017KT 9999 BKN012/// OVC017/// ///TCU 13/12 Q1014 TEMPO 05015G25KT RA BKN012 OVC030

TAF TAF LFOH
Valid from the 22 at 06:00 until the 23 at 06:00 UTC


220500Z 2206/2306 05015KT 9999 OVC005 OVC030 BKN070TCU
TEMPO 2206/2208 3000 RA
BECMG 2208/2210 SCT012 OVC030
TEMPO 2210/2219 05015G25KT RA BKN012 OVC030
ATIS : +33 2 35 54 64 93



MET'MAP, your aeronautical weather chart ! - Copyright ORBIFLY December 2007 - Disclaimer

ORBIFLY MET'MAP TEAM :

Programming & Development : Alexandra Zaïnal
Concept & original design : Baudouin d'Aumeries
Assistance for programming : Marc-Olivier Méhu
Technical & hardware support : Manuel Goepfert

Contact : metmap@orbifly.com




SOURCES & CREDITS :

   NOAA